sensor_id;sensor_type;location;lat;lon;timestamp;pressure;altitude;pressure_sealevel;temperature;humidity
40245;BME280;25963;42.694;23.600;2022-11-03T00:01:50;95764.69;;;9.06;83.08
40245;BME280;25963;42.694;23.600;2022-11-03T00:04:18;95765.97;;;9.17;82.27
40245;BME280;25963;42.694;23.600;2022-11-03T00:06:45;95755.91;;;9.27;81.67
40245;BME280;25963;42.694;23.600;2022-11-03T00:09:12;95764.28;;;9.37;81.57
40245;BME280;25963;42.694;23.600;2022-11-03T00:11:40;95768.94;;;9.42;81.34
40245;BME280;25963;42.694;23.600;2022-11-03T00:14:06;95773.78;;;9.38;81.30
40245;BME280;25963;42.694;23.600;2022-11-03T00:16:33;95762.81;;;9.28;81.17
40245;BME280;25963;42.694;23.600;2022-11-03T00:18:59;95770.34;;;9.37;81.75
40245;BME280;25963;42.694;23.600;2022-11-03T00:21:24;95766.94;;;9.44;80.53
40245;BME280;25963;42.694;23.600;2022-11-03T00:23:50;95770.91;;;9.33;80.99
40245;BME280;25963;42.694;23.600;2022-11-03T00:26:20;95772.75;;;9.39;80.89
40245;BME280;25963;42.694;23.600;2022-11-03T00:28:47;95764.06;;;9.38;80.41
40245;BME280;25963;42.694;23.600;2022-11-03T00:31:21;95774.41;;;9.40;80.99
40245;BME280;25963;42.694;23.600;2022-11-03T00:33:48;95767.72;;;9.37;81.71
40245;BME280;25963;42.694;23.600;2022-11-03T00:36:16;95770.09;;;9.32;81.29
40245;BME280;25963;42.694;23.600;2022-11-03T00:38:43;95775.31;;;8.91;82.92
40245;BME280;25963;42.694;23.600;2022-11-03T00:41:09;95769.31;;;8.76;83.61
40245;BME280;25963;42.694;23.600;2022-11-03T00:43:35;95774.59;;;8.76;84.25
40245;BME280;25963;42.694;23.600;2022-11-03T00:46:02;95769.31;;;8.76;83.58
40245;BME280;25963;42.694;23.600;2022-11-03T00:48:29;95775.59;;;8.75;83.92
40245;BME280;25963;42.694;23.600;2022-11-03T00:51:13;95780.34;;;8.86;83.51
40245;BME280;25963;42.694;23.600;2022-11-03T00:56:06;95778.31;;;8.60;85.05
40245;BME280;25963;42.694;23.600;2022-11-03T00:58:32;95783.59;;;8.38;85.80
40245;BME280;25963;42.694;23.600;2022-11-03T01:01:06;95782.66;;;8.31;86.80
40245;BME280;25963;42.694;23.600;2022-11-03T01:03:34;95781.69;;;8.32;86.98
40245;BME280;25963;42.694;23.600;2022-11-03T01:06:01;95785.38;;;8.38;86.29
40245;BME280;25963;42.694;23.600;2022-11-03T01:08:45;95789.56;;;8.32;86.40
40245;BME280;25963;42.694;23.600;2022-11-03T01:11:14;95782.22;;;8.28;87.15
40245;BME280;25963;42.694;23.600;2022-11-03T01:13:59;95783.81;;;8.43;85.99
40245;BME280;25963;42.694;23.600;2022-11-03T01:16:25;95780.00;;;8.46;86.55
40245;BME280;25963;42.694;23.600;2022-11-03T01:18:50;95776.81;;;8.29;86.28
40245;BME280;25963;42.694;23.600;2022-11-03T01:21:16;95771.13;;;8.26;86.93
40245;BME280;25963;42.694;23.600;2022-11-03T01:23:43;95784.44;;;8.24;87.21
40245;BME280;25963;42.694;23.600;2022-11-03T01:26:10;95778.94;;;8.40;86.27
40245;BME280;25963;42.694;23.600;2022-11-03T01:28:37;95782.03;;;8.44;85.98
40245;BME280;25963;42.694;23.600;2022-11-03T01:31:09;95769.50;;;8.46;86.16
40245;BME280;25963;42.694;23.600;2022-11-03T01:33:34;95782.13;;;8.36;87.33
40245;BME280;25963;42.694;23.600;2022-11-03T01:36:00;95772.13;;;8.46;86.53
40245;BME280;25963;42.694;23.600;2022-11-03T01:38:26;95761.00;;;8.44;86.40
40245;BME280;25963;42.694;23.600;2022-11-03T01:40:51;95766.00;;;8.39;87.77
40245;BME280;25963;42.694;23.600;2022-11-03T01:43:20;95759.47;;;8.35;87.60
40245;BME280;25963;42.694;23.600;2022-11-03T01:45:48;95777.78;;;8.28;88.80
40245;BME280;25963;42.694;23.600;2022-11-03T01:48:16;95776.66;;;8.37;88.74
40245;BME280;25963;42.694;23.600;2022-11-03T01:50:44;95776.63;;;8.52;86.98
40245;BME280;25963;42.694;23.600;2022-11-03T01:53:12;95768.94;;;8.51;87.08
40245;BME280;25963;42.694;23.600;2022-11-03T01:55:38;95775.94;;;8.43;88.50
40245;BME280;25963;42.694;23.600;2022-11-03T02:00:41;95771.22;;;8.60;89.13
40245;BME280;25963;42.694;23.600;2022-11-03T02:03:07;95772.84;;;8.61;88.40
40245;BME280;25963;42.694;23.600;2022-11-03T02:05:35;95780.56;;;8.63;88.45
40245;BME280;25963;42.694;23.600;2022-11-03T02:08:05;95779.81;;;8.69;89.38
40245;BME280;25963;42.694;23.600;2022-11-03T02:10:34;95779.09;;;8.82;89.10
40245;BME280;25963;42.694;23.600;2022-11-03T02:13:06;95779.84;;;8.76;87.89
40245;BME280;25963;42.694;23.600;2022-11-03T02:15:35;95781.13;;;8.80;88.06
40245;BME280;25963;42.694;23.600;2022-11-03T02:18:02;95781.34;;;8.85;87.22
40245;BME280;25963;42.694;23.600;2022-11-03T02:20:30;95778.94;;;8.90;88.00
40245;BME280;25963;42.694;23.600;2022-11-03T02:25:43;95777.75;;;8.93;88.80
40245;BME280;25963;42.694;23.600;2022-11-03T02:28:10;95776.03;;;9.06;88.09
40245;BME280;25963;42.694;23.600;2022-11-03T02:38:56;95780.78;;;9.24;86.67
40245;BME280;25963;42.694;23.600;2022-11-03T02:41:23;95774.94;;;9.29;85.76
40245;BME280;25963;42.694;23.600;2022-11-03T02:43:51;95769.69;;;9.29;86.49
40245;BME280;25963;42.694;23.600;2022-11-03T02:46:18;95772.53;;;9.27;86.88
40245;BME280;25963;42.694;23.600;2022-11-03T02:48:44;95776.53;;;9.23;86.91
40245;BME280;25963;42.694;23.600;2022-11-03T02:51:10;95781.63;;;9.25;87.44
40245;BME280;25963;42.694;23.600;2022-11-03T02:53:41;95778.03;;;9.04;87.04
40245;BME280;25963;42.694;23.600;2022-11-03T02:56:18;95776.50;;;9.17;86.86
40245;BME280;25963;42.694;23.600;2022-11-03T02:58:48;95777.53;;;9.16;87.54
40245;BME280;25963;42.694;23.600;2022-11-03T03:01:26;95776.53;;;9.23;87.28
40245;BME280;25963;42.694;23.600;2022-11-03T03:03:57;95781.00;;;9.23;87.22
40245;BME280;25963;42.694;23.600;2022-11-03T03:06:52;95782.41;;;9.19;88.01
40245;BME280;25963;42.694;23.600;2022-11-03T03:09:24;95785.72;;;9.06;88.83
40245;BME280;25963;42.694;23.600;2022-11-03T03:11:54;95783.94;;;9.06;89.39
40245;BME280;25963;42.694;23.600;2022-11-03T03:14:24;95781.66;;;9.03;88.71
40245;BME280;25963;42.694;23.600;2022-11-03T03:22:03;95790.28;;;9.19;89.53
40245;BME280;25963;42.694;23.600;2022-11-03T03:24:35;95787.94;;;9.30;88.44
40245;BME280;25963;42.694;23.600;2022-11-03T03:27:05;95789.13;;;9.28;86.71
40245;BME280;25963;42.694;23.600;2022-11-03T03:29:45;95789.13;;;9.28;87.38
40245;BME280;25963;42.694;23.600;2022-11-03T03:32:15;95786.69;;;9.26;87.27
40245;BME280;25963;42.694;23.600;2022-11-03T03:34:45;95778.94;;;9.18;87.91
40245;BME280;25963;42.694;23.600;2022-11-03T03:37:13;95787.88;;;9.24;87.75
40245;BME280;25963;42.694;23.600;2022-11-03T03:39:44;95791.53;;;9.23;87.80
40245;BME280;25963;42.694;23.600;2022-11-03T03:42:12;95790.28;;;9.19;87.20
40245;BME280;25963;42.694;23.600;2022-11-03T03:44:40;95790.19;;;9.05;87.82
40245;BME280;25963;42.694;23.600;2022-11-03T03:47:21;95794.22;;;9.01;88.06
40245;BME280;25963;42.694;23.600;2022-11-03T03:49:47;95796.59;;;8.96;88.76
40245;BME280;25963;42.694;23.600;2022-11-03T03:52:13;95801.78;;;8.83;89.05
40245;BME280;25963;42.694;23.600;2022-11-03T03:54:39;95801.31;;;8.79;89.47
40245;BME280;25963;42.694;23.600;2022-11-03T03:57:05;95789.13;;;8.72;89.36
40245;BME280;25963;42.694;23.600;2022-11-03T03:59:33;95796.53;;;8.83;88.80
40245;BME280;25963;42.694;23.600;2022-11-03T04:01:58;95792.03;;;8.77;89.02
40245;BME280;25963;42.694;23.600;2022-11-03T04:04:24;95795.97;;;8.66;89.55
40245;BME280;25963;42.694;23.600;2022-11-03T04:06:49;95793.88;;;8.61;89.39
40245;BME280;25963;42.694;23.600;2022-11-03T04:09:35;95799.41;;;8.45;90.20
40245;BME280;25963;42.694;23.600;2022-11-03T04:12:00;95789.50;;;8.26;91.11
40245;BME280;25963;42.694;23.600;2022-11-03T04:14:44;95788.19;;;8.36;90.13
40245;BME280;25963;42.694;23.600;2022-11-03T04:17:28;95792.63;;;8.36;90.57
40245;BME280;25963;42.694;23.600;2022-11-03T04:20:12;95799.72;;;8.35;90.68
40245;BME280;25963;42.694;23.600;2022-11-03T04:22:56;95798.44;;;8.31;90.95
40245;BME280;25963;42.694;23.600;2022-11-03T04:25:22;95795.38;;;8.28;90.64
40245;BME280;25963;42.694;23.600;2022-11-03T04:27:47;95803.63;;;8.24;90.91
40245;BME280;25963;42.694;23.600;2022-11-03T04:30:15;95797.75;;;8.22;90.82
40245;BME280;25963;42.694;23.600;2022-11-03T04:32:42;95799.75;;;8.20;90.47
40245;BME280;25963;42.694;23.600;2022-11-03T04:35:21;95790.59;;;8.16;90.55
40245;BME280;25963;42.694;23.600;2022-11-03T04:37:50;95787.88;;;7.88;91.87
40245;BME280;25963;42.694;23.600;2022-11-03T04:40:18;95791.56;;;7.72;93.61
40245;BME280;25963;42.694;23.600;2022-11-03T04:42:44;95796.56;;;7.89;93.17
40245;BME280;25963;42.694;23.600;2022-11-03T04:45:23;95800.50;;;7.93;93.14
40245;BME280;25963;42.694;23.600;2022-11-03T04:47:51;95791.59;;;7.94;92.94
40245;BME280;25963;42.694;23.600;2022-11-03T04:50:19;95792.22;;;7.96;92.29
40245;BME280;25963;42.694;23.600;2022-11-03T04:52:55;95798.47;;;7.95;92.22
40245;BME280;25963;42.694;23.600;2022-11-03T04:55:21;95800.84;;;7.90;93.08
40245;BME280;25963;42.694;23.600;2022-11-03T04:57:47;95801.09;;;7.95;92.82
40245;BME280;25963;42.694;23.600;2022-11-03T05:00:14;95797.84;;;7.93;92.66
40245;BME280;25963;42.694;23.600;2022-11-03T05:02:42;95807.81;;;7.83;92.36
40245;BME280;25963;42.694;23.600;2022-11-03T05:05:28;95805.78;;;7.63;94.53
40245;BME280;25963;42.694;23.600;2022-11-03T05:07:55;95813.19;;;7.74;93.61
40245;BME280;25963;42.694;23.600;2022-11-03T05:10:27;95816.06;;;7.80;93.84
40245;BME280;25963;42.694;23.600;2022-11-03T05:12:54;95807.41;;;7.64;94.14
40245;BME280;25963;42.694;23.600;2022-11-03T05:15:31;95811.47;;;7.67;94.36
40245;BME280;25963;42.694;23.600;2022-11-03T05:17:59;95811.50;;;7.37;96.00
40245;BME280;25963;42.694;23.600;2022-11-03T05:20:30;95815.66;;;7.46;96.55
40245;BME280;25963;42.694;23.600;2022-11-03T05:22:56;95819.53;;;7.36;97.12
40245;BME280;25963;42.694;23.600;2022-11-03T05:25:42;95824.25;;;7.55;97.05
40245;BME280;25963;42.694;23.600;2022-11-03T05:30:55;95813.25;;;7.96;94.97
40245;BME280;25963;42.694;23.600;2022-11-03T05:33:29;95806.84;;;8.20;93.12
40245;BME280;25963;42.694;23.600;2022-11-03T05:35:59;95813.03;;;8.34;91.78
40245;BME280;25963;42.694;23.600;2022-11-03T05:38:30;95815.09;;;8.53;90.58
40245;BME280;25963;42.694;23.600;2022-11-03T05:41:00;95824.44;;;8.84;89.24
40245;BME280;25963;42.694;23.600;2022-11-03T05:43:27;95832.78;;;9.16;86.96
40245;BME280;25963;42.694;23.600;2022-11-03T05:45:56;95826.69;;;9.43;85.14
40245;BME280;25963;42.694;23.600;2022-11-03T05:48:38;95829.88;;;9.73;83.83
40245;BME280;25963;42.694;23.600;2022-11-03T05:51:30;95835.47;;;9.98;81.59
40245;BME280;25963;42.694;23.600;2022-11-03T05:53:57;95833.78;;;10.32;80.64
40245;BME280;25963;42.694;23.600;2022-11-03T05:56:24;95848.63;;;10.46;80.08
40245;BME280;25963;42.694;23.600;2022-11-03T05:58:52;95851.53;;;10.78;78.90
40245;BME280;25963;42.694;23.600;2022-11-03T06:01:33;95838.72;;;10.88;78.16
40245;BME280;25963;42.694;23.600;2022-11-03T06:04:19;95849.91;;;11.17;77.60
40245;BME280;25963;42.694;23.600;2022-11-03T06:06:51;95849.50;;;11.40;77.33
40245;BME280;25963;42.694;23.600;2022-11-03T06:09:20;95858.81;;;11.56;75.82
40245;BME280;25963;42.694;23.600;2022-11-03T06:11:48;95859.81;;;11.68;75.97
40245;BME280;25963;42.694;23.600;2022-11-03T06:14:20;95855.31;;;11.82;76.25
40245;BME280;25963;42.694;23.600;2022-11-03T06:19:30;95869.88;;;12.11;75.52
40245;BME280;25963;42.694;23.600;2022-11-03T06:22:00;95866.53;;;12.29;76.07
40245;BME280;25963;42.694;23.600;2022-11-03T06:24:30;95857.56;;;12.37;75.84
40245;BME280;25963;42.694;23.600;2022-11-03T06:26:56;95858.09;;;12.52;73.78
40245;BME280;25963;42.694;23.600;2022-11-03T06:29:22;95873.16;;;12.51;74.62
40245;BME280;25963;42.694;23.600;2022-11-03T06:31:50;95865.41;;;12.50;74.42
40245;BME280;25963;42.694;23.600;2022-11-03T06:36:51;95864.56;;;12.56;75.33
40245;BME280;25963;42.694;23.600;2022-11-03T06:39:21;95873.53;;;12.10;75.75
40245;BME280;25963;42.694;23.600;2022-11-03T06:41:47;95875.03;;;12.38;76.80
40245;BME280;25963;42.694;23.600;2022-11-03T06:44:22;95886.16;;;12.08;76.99
40245;BME280;25963;42.694;23.600;2022-11-03T06:46:50;95885.94;;;12.16;78.13
40245;BME280;25963;42.694;23.600;2022-11-03T06:49:33;95883.09;;;12.56;77.79
40245;BME280;25963;42.694;23.600;2022-11-03T06:52:32;95884.34;;;12.85;77.13
40245;BME280;25963;42.694;23.600;2022-11-03T06:55:20;95880.22;;;13.21;77.69
40245;BME280;25963;42.694;23.600;2022-11-03T06:57:47;95883.72;;;13.46;75.76
40245;BME280;25963;42.694;23.600;2022-11-03T07:02:49;95872.91;;;13.91;76.74
40245;BME280;25963;42.694;23.600;2022-11-03T07:05:23;95874.41;;;14.18;76.02
40245;BME280;25963;42.694;23.600;2022-11-03T07:07:54;95873.47;;;14.30;75.14
40245;BME280;25963;42.694;23.600;2022-11-03T07:10:26;95868.44;;;14.41;72.10
40245;BME280;25963;42.694;23.600;2022-11-03T07:12:52;95872.63;;;14.67;73.16
40245;BME280;25963;42.694;23.600;2022-11-03T07:15:27;95867.91;;;14.80;72.49
40245;BME280;25963;42.694;23.600;2022-11-03T07:17:55;95864.03;;;14.95;73.56
40245;BME280;25963;42.694;23.600;2022-11-03T07:20:21;95857.91;;;14.94;71.52
40245;BME280;25963;42.694;23.600;2022-11-03T07:22:47;95862.66;;;15.04;72.67
40245;BME280;25963;42.694;23.600;2022-11-03T07:25:17;95867.91;;;15.11;70.51
40245;BME280;25963;42.694;23.600;2022-11-03T07:27:43;95865.03;;;15.24;73.15
40245;BME280;25963;42.694;23.600;2022-11-03T07:30:20;95853.13;;;15.38;72.52
40245;BME280;25963;42.694;23.600;2022-11-03T07:32:48;95851.50;;;15.61;70.44
40245;BME280;25963;42.694;23.600;2022-11-03T07:37:41;95857.88;;;15.95;70.64
40245;BME280;25963;42.694;23.600;2022-11-03T07:40:15;95859.03;;;15.99;66.62
40245;BME280;25963;42.694;23.600;2022-11-03T07:42:42;95855.06;;;16.13;67.85
40245;BME280;25963;42.694;23.600;2022-11-03T07:45:41;95857.13;;;16.23;68.79
40245;BME280;25963;42.694;23.600;2022-11-03T07:50:41;95853.97;;;16.38;70.04
40245;BME280;25963;42.694;23.600;2022-11-03T07:53:39;95860.09;;;16.38;64.84
40245;BME280;25963;42.694;23.600;2022-11-03T07:58:44;95848.88;;;16.65;65.81
40245;BME280;25963;42.694;23.600;2022-11-03T08:01:34;95847.47;;;16.46;62.78
40245;BME280;25963;42.694;23.600;2022-11-03T08:04:04;95848.00;;;16.48;66.06
40245;BME280;25963;42.694;23.600;2022-11-03T08:06:31;95844.81;;;16.46;65.29
40245;BME280;25963;42.694;23.600;2022-11-03T08:08:56;95827.00;;;16.34;64.77
40245;BME280;25963;42.694;23.600;2022-11-03T08:11:22;95837.41;;;16.36;65.34
40245;BME280;25963;42.694;23.600;2022-11-03T08:13:51;95831.00;;;16.49;68.09
40245;BME280;25963;42.694;23.600;2022-11-03T08:16:17;95829.91;;;16.61;63.57
40245;BME280;25963;42.694;23.600;2022-11-03T08:18:43;95829.47;;;16.53;61.80
40245;BME280;25963;42.694;23.600;2022-11-03T08:21:09;95831.84;;;16.37;62.91
40245;BME280;25963;42.694;23.600;2022-11-03T08:23:34;95821.00;;;16.27;62.94
40245;BME280;25963;42.694;23.600;2022-11-03T08:26:00;95827.91;;;16.40;63.67
40245;BME280;25963;42.694;23.600;2022-11-03T08:28:26;95820.22;;;16.55;66.06
40245;BME280;25963;42.694;23.600;2022-11-03T08:30:51;95826.13;;;16.57;63.61
40245;BME280;25963;42.694;23.600;2022-11-03T08:33:17;95818.91;;;16.86;65.27
40245;BME280;25963;42.694;23.600;2022-11-03T08:35:42;95815.38;;;16.98;64.42
40245;BME280;25963;42.694;23.600;2022-11-03T08:38:08;95815.63;;;17.13;63.04
40245;BME280;25963;42.694;23.600;2022-11-03T08:40:39;95809.44;;;17.46;63.99
40245;BME280;25963;42.694;23.600;2022-11-03T08:43:05;95812.34;;;17.62;60.75
40245;BME280;25963;42.694;23.600;2022-11-03T08:45:30;95802.66;;;17.94;60.68
40245;BME280;25963;42.694;23.600;2022-11-03T08:47:56;95798.84;;;18.07;57.19
40245;BME280;25963;42.694;23.600;2022-11-03T08:50:21;95796.22;;;18.34;56.37
40245;BME280;25963;42.694;23.600;2022-11-03T08:52:47;95797.16;;;18.50;59.34
40245;BME280;25963;42.694;23.600;2022-11-03T08:55:14;95791.31;;;18.53;56.35
40245;BME280;25963;42.694;23.600;2022-11-03T08:57:39;95786.47;;;18.50;53.27
40245;BME280;25963;42.694;23.600;2022-11-03T09:00:06;95793.03;;;18.64;54.89
40245;BME280;25963;42.694;23.600;2022-11-03T09:02:32;95790.59;;;18.63;55.01
40245;BME280;25963;42.694;23.600;2022-11-03T09:04:57;95784.91;;;18.76;57.50
40245;BME280;25963;42.694;23.600;2022-11-03T09:07:23;95787.47;;;18.98;53.21
40245;BME280;25963;42.694;23.600;2022-11-03T09:09:48;95788.13;;;19.10;53.92
40245;BME280;25963;42.694;23.600;2022-11-03T09:12:14;95771.00;;;19.11;54.45
40245;BME280;25963;42.694;23.600;2022-11-03T09:14:39;95776.78;;;19.30;53.67
40245;BME280;25963;42.694;23.600;2022-11-03T09:17:04;95777.91;;;19.39;54.86
40245;BME280;25963;42.694;23.600;2022-11-03T09:19:30;95764.78;;;19.38;53.83
40245;BME280;25963;42.694;23.600;2022-11-03T09:21:55;95758.19;;;19.51;51.41
40245;BME280;25963;42.694;23.600;2022-11-03T09:24:21;95765.00;;;19.69;53.23
40245;BME280;25963;42.694;23.600;2022-11-03T09:26:46;95763.38;;;19.68;51.87
40245;BME280;25963;42.694;23.600;2022-11-03T09:29:12;95758.09;;;19.78;52.33
40245;BME280;25963;42.694;23.600;2022-11-03T09:31:37;95761.59;;;19.89;51.54
40245;BME280;25963;42.694;23.600;2022-11-03T09:34:03;95747.41;;;19.88;48.97
40245;BME280;25963;42.694;23.600;2022-11-03T09:36:28;95747.66;;;19.81;51.65
40245;BME280;25963;42.694;23.600;2022-11-03T09:38:53;95744.19;;;19.91;49.71
40245;BME280;25963;42.694;23.600;2022-11-03T09:41:19;95747.19;;;20.00;48.88
40245;BME280;25963;42.694;23.600;2022-11-03T09:43:46;95733.56;;;20.12;48.95
40245;BME280;25963;42.694;23.600;2022-11-03T09:46:12;95737.03;;;20.07;47.23
40245;BME280;25963;42.694;23.600;2022-11-03T09:48:39;95738.41;;;20.20;48.02
40245;BME280;25963;42.694;23.600;2022-11-03T09:51:05;95733.34;;;20.28;49.06
40245;BME280;25963;42.694;23.600;2022-11-03T09:53:33;95731.53;;;20.49;47.75
40245;BME280;25963;42.694;23.600;2022-11-03T09:55:59;95722.66;;;20.44;49.64
40245;BME280;25963;42.694;23.600;2022-11-03T09:58:24;95713.81;;;20.48;46.62
40245;BME280;25963;42.694;23.600;2022-11-03T10:00:50;95713.59;;;20.60;48.89
40245;BME280;25963;42.694;23.600;2022-11-03T10:03:16;95720.28;;;20.73;47.74
40245;BME280;25963;42.694;23.600;2022-11-03T10:05:46;95710.91;;;20.91;48.26
40245;BME280;25963;42.694;23.600;2022-11-03T10:08:23;95703.13;;;21.00;45.47
40245;BME280;25963;42.694;23.600;2022-11-03T10:10:50;95701.28;;;20.95;49.23
40245;BME280;25963;42.694;23.600;2022-11-03T10:13:49;95699.91;;;21.08;46.25
40245;BME280;25963;42.694;23.600;2022-11-03T10:16:20;95693.16;;;21.31;45.79
40245;BME280;25963;42.694;23.600;2022-11-03T10:18:46;95685.41;;;21.39;45.52
40245;BME280;25963;42.694;23.600;2022-11-03T10:21:29;95677.84;;;21.41;46.02
40245;BME280;25963;42.694;23.600;2022-11-03T10:23:55;95682.41;;;21.46;45.71
40245;BME280;25963;42.694;23.600;2022-11-03T10:26:21;95680.03;;;21.19;43.73
40245;BME280;25963;42.694;23.600;2022-11-03T10:29:01;95674.69;;;21.19;46.85
40245;BME280;25963;42.694;23.600;2022-11-03T10:31:38;95654.78;;;21.35;46.28
40245;BME280;25963;42.694;23.600;2022-11-03T10:34:05;95666.03;;;21.48;44.40
40245;BME280;25963;42.694;23.600;2022-11-03T10:36:47;95667.28;;;21.76;47.67
40245;BME280;25963;42.694;23.600;2022-11-03T10:39:27;95656.53;;;21.81;46.44
40245;BME280;25963;42.694;23.600;2022-11-03T10:41:58;95653.22;;;21.89;45.34
40245;BME280;25963;42.694;23.600;2022-11-03T10:44:26;95643.78;;;22.02;44.15
40245;BME280;25963;42.694;23.600;2022-11-03T10:46:56;95631.09;;;22.07;45.18
40245;BME280;25963;42.694;23.600;2022-11-03T10:49:23;95635.09;;;22.20;42.95
40245;BME280;25963;42.694;23.600;2022-11-03T10:51:53;95630.94;;;22.38;42.96
40245;BME280;25963;42.694;23.600;2022-11-03T10:54:21;95625.94;;;22.21;39.70
40245;BME280;25963;42.694;23.600;2022-11-03T10:56:47;95619.53;;;22.17;40.97
40245;BME280;25963;42.694;23.600;2022-11-03T10:59:19;95611.81;;;22.40;42.68
40245;BME280;25963;42.694;23.600;2022-11-03T11:01:46;95593.03;;;22.34;42.16
40245;BME280;25963;42.694;23.600;2022-11-03T11:04:16;95597.72;;;21.79;39.64
40245;BME280;25963;42.694;23.600;2022-11-03T11:06:42;95598.97;;;21.92;42.88
40245;BME280;25963;42.694;23.600;2022-11-03T11:09:11;95595.66;;;22.05;41.15
40245;BME280;25963;42.694;23.600;2022-11-03T11:11:37;95585.63;;;22.16;40.92
40245;BME280;25963;42.694;23.600;2022-11-03T11:14:33;95583.81;;;22.46;40.78
40245;BME280;25963;42.694;23.600;2022-11-03T11:17:01;95580.94;;;22.37;40.32
40245;BME280;25963;42.694;23.600;2022-11-03T11:19:28;95580.47;;;22.30;39.10
40245;BME280;25963;42.694;23.600;2022-11-03T11:29:56;95565.44;;;22.58;38.93
40245;BME280;25963;42.694;23.600;2022-11-03T11:35:17;95560.56;;;22.89;39.04
40245;BME280;25963;42.694;23.600;2022-11-03T11:37:43;95561.03;;;22.96;38.39
40245;BME280;25963;42.694;23.600;2022-11-03T11:48:34;95538.72;;;23.20;37.57
40245;BME280;25963;42.694;23.600;2022-11-03T11:51:00;95536.78;;;23.44;38.11
40245;BME280;25963;42.694;23.600;2022-11-03T11:53:32;95524.63;;;23.28;35.94
40245;BME280;25963;42.694;23.600;2022-11-03T11:56:01;95529.22;;;23.46;36.89
40245;BME280;25963;42.694;23.600;2022-11-03T12:01:02;95525.59;;;23.56;34.12
40245;BME280;25963;42.694;23.600;2022-11-03T12:03:40;95517.34;;;23.47;35.61
40245;BME280;25963;42.694;23.600;2022-11-03T12:06:08;95515.72;;;23.71;36.85
40245;BME280;25963;42.694;23.600;2022-11-03T12:08:36;95516.97;;;23.78;33.37
40245;BME280;25963;42.694;23.600;2022-11-03T12:11:03;95512.72;;;23.72;33.92
40245;BME280;25963;42.694;23.600;2022-11-03T12:13:42;95512.44;;;23.55;33.82
40245;BME280;25963;42.694;23.600;2022-11-03T12:16:09;95503.09;;;23.47;33.82
40245;BME280;25963;42.694;23.600;2022-11-03T12:21:09;95497.88;;;23.75;32.57
40245;BME280;25963;42.694;23.600;2022-11-03T12:26:17;95490.00;;;23.97;32.57
40245;BME280;25963;42.694;23.600;2022-11-03T12:28:43;95484.41;;;23.94;30.52
40245;BME280;25963;42.694;23.600;2022-11-03T12:31:08;95474.03;;;24.01;32.14
40245;BME280;25963;42.694;23.600;2022-11-03T12:33:34;95482.53;;;24.08;31.70
40245;BME280;25963;42.694;23.600;2022-11-03T12:35:59;95474.84;;;24.01;29.91
40245;BME280;25963;42.694;23.600;2022-11-03T12:38:25;95482.84;;;24.06;30.67
40245;BME280;25963;42.694;23.600;2022-11-03T12:40:50;95474.28;;;23.85;31.51
40245;BME280;25963;42.694;23.600;2022-11-03T12:43:17;95461.53;;;23.91;31.10
40245;BME280;25963;42.694;23.600;2022-11-03T12:45:43;95471.75;;;24.08;31.86
40245;BME280;25963;42.694;23.600;2022-11-03T12:48:08;95470.75;;;24.04;30.99
40245;BME280;25963;42.694;23.600;2022-11-03T12:50:34;95463.41;;;24.09;31.46
40245;BME280;25963;42.694;23.600;2022-11-03T12:53:02;95458.78;;;24.10;29.99
40245;BME280;25963;42.694;23.600;2022-11-03T12:55:28;95461.34;;;24.20;31.00
40245;BME280;25963;42.694;23.600;2022-11-03T12:57:53;95458.00;;;24.09;31.85
40245;BME280;25963;42.694;23.600;2022-11-03T13:00:19;95458.06;;;24.04;30.96
40245;BME280;25963;42.694;23.600;2022-11-03T13:02:45;95458.66;;;24.01;31.30
40245;BME280;25963;42.694;23.600;2022-11-03T13:05:10;95457.53;;;23.88;30.11
40245;BME280;25963;42.694;23.600;2022-11-03T13:07:40;95455.13;;;23.87;31.19
40245;BME280;25963;42.694;23.600;2022-11-03T13:10:06;95451.94;;;23.85;30.60
40245;BME280;25963;42.694;23.600;2022-11-03T13:12:31;95453.91;;;23.79;30.94
40245;BME280;25963;42.694;23.600;2022-11-03T13:14:58;95455.94;;;23.87;30.94
40245;BME280;25963;42.694;23.600;2022-11-03T13:17:24;95443.00;;;23.71;30.66
40245;BME280;25963;42.694;23.600;2022-11-03T13:19:50;95445.53;;;23.81;31.24
40245;BME280;25963;42.694;23.600;2022-11-03T13:22:15;95444.53;;;23.77;29.97
40245;BME280;25963;42.694;23.600;2022-11-03T13:24:41;95441.97;;;23.85;30.28
40245;BME280;25963;42.694;23.600;2022-11-03T13:27:06;95441.19;;;23.85;30.35
40245;BME280;25963;42.694;23.600;2022-11-03T13:29:32;95450.16;;;23.42;30.33
40245;BME280;25963;42.694;23.600;2022-11-03T13:31:57;95441.25;;;23.61;30.00
40245;BME280;25963;42.694;23.600;2022-11-03T13:34:23;95443.06;;;23.65;30.55
40245;BME280;25963;42.694;23.600;2022-11-03T13:36:48;95434.78;;;23.62;31.24
40245;BME280;25963;42.694;23.600;2022-11-03T13:39:13;95436.47;;;23.58;29.74
40245;BME280;25963;42.694;23.600;2022-11-03T13:41:39;95436.66;;;23.61;30.49
40245;BME280;25963;42.694;23.600;2022-11-03T13:44:04;95434.03;;;23.56;30.37
40245;BME280;25963;42.694;23.600;2022-11-03T13:46:30;95444.97;;;23.46;30.40
40245;BME280;25963;42.694;23.600;2022-11-03T13:48:55;95446.63;;;23.42;30.43
40245;BME280;25963;42.694;23.600;2022-11-03T13:51:20;95439.13;;;23.39;30.71
40245;BME280;25963;42.694;23.600;2022-11-03T13:53:46;95445.19;;;23.31;29.89
40245;BME280;25963;42.694;23.600;2022-11-03T13:56:12;95441.25;;;23.23;30.64
40245;BME280;25963;42.694;23.600;2022-11-03T13:58:37;95448.16;;;23.10;30.92
40245;BME280;25963;42.694;23.600;2022-11-03T14:01:03;95435.88;;;23.04;30.99
40245;BME280;25963;42.694;23.600;2022-11-03T14:03:28;95442.78;;;22.86;31.08
40245;BME280;25963;42.694;23.600;2022-11-03T14:05:54;95448.69;;;22.64;30.99
40245;BME280;25963;42.694;23.600;2022-11-03T14:08:19;95442.06;;;22.56;31.15
40245;BME280;25963;42.694;23.600;2022-11-03T14:10:45;95442.34;;;22.55;31.36
40245;BME280;25963;42.694;23.600;2022-11-03T14:13:10;95440.53;;;22.50;31.33